Terminal Aerodrome Forecast
Issued by NWS Atlanta, GA

Home | Current Version | Previous Version | Text Only | Print | Product List | Glossary On
Versions: 1 2 3 4 5 6 7 8 9 10 11 12 13
000
FTUS42 KFFC 171743
TAFMCN
TAF
KMCN 171743Z 1718/1818 29007KT P6SM FEW250
     FM180000 00000KT P6SM SCT250
     FM181000 00000KT P6SM SCT200
     FM181600 30003KT P6SM SCT070=

USA.gov is the U.S. government's official web portal to all federal, state and local government web resources and services.